Time;durP1;ratioP1;P1;durP2;ratioP2;P2;SDS_P1;SDS_P2;PMS_P1;PMS_P2;Temp;Humidity;BMP_temperature;BMP_pressure;BME280_temperature;BME280_humidity;BME280_pressure;Samples;Min_cycle;Max_cycle;Signal;HPM_P1;HPM_P2
2022/12/21 00:02:12;;;;;;;1182.30;450.40;;;;;;;3.34;74.02;100147.81;126532;1297;107364;-72
2022/12/21 00:05:18;;;;;;;551.10;182.00;;;;;;;3.38;73.96;100154.40;126570;1298;107517;-72
2022/12/21 00:08:24;;;;;;;559.70;195.30;;;;;;;3.40;74.02;100157.02;126502;1298;107486;-72
2022/12/21 00:11:31;;;;;;;277.80;94.00;;;;;;;3.41;74.23;100153.98;126558;1289;107529;-73
2022/12/21 00:14:37;;;;;;;81.10;33.20;;;;;;;3.41;74.27;100152.90;126484;1297;107282;-72
2022/12/21 00:17:42;;;;;;;65.60;29.20;;;;;;;3.39;74.28;100147.98;126525;1296;107710;-72
2022/12/21 00:20:59;;;;;;;48.30;26.60;;;;;;;3.38;74.31;100155.95;126580;1298;107492;-73
2022/12/21 00:24:05;;;;;;;40.80;22.90;;;;;;;3.37;74.62;100154.98;126502;1304;107239;-73
2022/12/21 00:27:10;;;;;;;32.60;18.10;;;;;;;3.36;74.82;100157.20;126537;1298;107514;-72
2022/12/21 00:30:16;;;;;;;35.00;20.70;;;;;;;3.32;75.02;100160.19;126501;1288;107530;-72
2022/12/21 00:33:22;;;;;;;33.80;18.40;;;;;;;3.29;75.17;100160.29;126501;1298;107535;-72
2022/12/21 00:36:30;;;;;;;34.20;18.60;;;;;;;3.24;75.35;100140.91;126477;1288;108549;-72
2022/12/21 00:39:35;;;;;;;24.90;14.30;;;;;;;3.25;75.38;100119.25;126505;1295;106279;-73
2022/12/21 00:42:41;;;;;;;31.20;17.60;;;;;;;3.28;75.32;100116.56;126424;1297;107478;-73
2022/12/21 00:45:46;;;;;;;32.60;17.30;;;;;;;3.29;75.46;100115.96;126496;1298;107525;-73
2022/12/21 00:48:52;;;;;;;31.10;17.10;;;;;;;3.32;75.49;100113.98;126538;1297;107251;-70
2022/12/21 00:51:57;;;;;;;31.80;17.60;;;;;;;3.33;75.28;100120.38;126326;1292;108090;-74
2022/12/21 00:55:03;;;;;;;28.60;17.20;;;;;;;3.32;75.37;100127.20;126350;1298;108489;-71
2022/12/21 00:58:09;;;;;;;32.10;18.40;;;;;;;3.32;75.22;100138.64;126379;1299;108752;-72
2022/12/21 01:01:17;;;;;;;30.10;16.90;;;;;;;3.31;75.26;100150.27;126516;1298;107551;-73
2022/12/21 01:04:22;;;;;;;30.90;17.00;;;;;;;3.29;75.23;100171.17;126422;1298;108128;-72
2022/12/21 01:07:28;;;;;;;30.00;17.10;;;;;;;3.29;75.06;100165.23;126500;1288;107632;-73
2022/12/21 01:10:34;;;;;;;30.50;17.30;;;;;;;3.28;75.17;100154.36;126546;1288;107463;-72
2022/12/21 01:13:40;;;;;;;31.10;16.80;;;;;;;3.28;75.15;100153.88;126383;1298;107371;-70
2022/12/21 01:16:46;;;;;;;32.10;18.00;;;;;;;3.25;75.13;100145.64;126359;1298;107847;-70
2022/12/21 01:19:52;;;;;;;33.30;17.30;;;;;;;3.23;75.23;100141.86;126365;1298;108125;-73
2022/12/21 01:22:57;;;;;;;28.60;15.20;;;;;;;3.27;75.31;100140.71;126502;1298;107304;-70
2022/12/21 01:26:03;;;;;;;32.90;17.20;;;;;;;3.32;75.10;100130.54;126309;1298;107488;-73
2022/12/21 01:29:09;;;;;;;30.60;17.50;;;;;;;3.38;75.15;100114.98;125685;1298;1107188;-72
2022/12/21 01:32:14;;;;;;;31.40;17.80;;;;;;;3.39;75.00;100086.95;126513;1298;108755;-73
2022/12/21 01:35:20;;;;;;;30.60;17.40;;;;;;;3.40;74.91;100080.36;126511;1298;107501;-71
2022/12/21 01:38:26;;;;;;;32.00;17.70;;;;;;;3.40;74.84;100065.94;126361;1298;108141;-70
2022/12/21 01:41:32;;;;;;;31.70;17.90;;;;;;;3.37;74.76;100064.23;126517;1289;107901;-72
2022/12/21 01:45:06;;;;;;;29.90;17.40;;;;;;;3.32;74.89;100064.27;126794;1296;107730;-72
2022/12/21 01:48:17;;;;;;;30.80;17.40;;;;;;;3.29;74.84;100081.85;126811;1295;107668;-71
2022/12/21 01:51:24;;;;;;;31.80;18.40;;;;;;;3.26;74.77;100068.70;126695;1295;107217;-71
2022/12/21 01:54:34;;;;;;;74.30;30.30;;;;;;;3.23;74.61;100060.33;126784;1302;107555;-71
2022/12/21 01:57:40;;;;;;;483.60;181.10;;;;;;;3.19;74.66;100106.15;126788;1289;108548;-71
2022/12/21 02:00:46;;;;;;;80.20;31.10;;;;;;;3.18;74.78;100080.21;126668;1299;107497;-71
2022/12/21 02:03:54;;;;;;;34.40;17.70;;;;;;;3.18;74.77;100069.35;126553;1298;106481;-73
2022/12/21 02:07:00;;;;;;;60.90;31.80;;;;;;;3.17;74.87;100078.86;126507;1297;105517;-72
2022/12/21 02:10:07;;;;;;;31.30;17.10;;;;;;;3.19;74.80;100088.20;126532;1302;108176;-72
2022/12/21 02:13:15;;;;;;;31.00;17.50;;;;;;;3.26;74.93;100072.05;126552;1298;108622;-72
2022/12/21 02:16:34;;;;;;;31.30;17.10;;;;;;;3.32;74.68;100066.50;126496;1296;107496;-71
2022/12/21 02:20:22;;;;;;;30.70;16.90;;;;;;;3.37;74.67;100101.73;126528;1297;107498;-71
2022/12/21 02:23:52;;;;;;;32.10;18.10;;;;;;;3.39;74.78;100105.77;126523;1297;107537;-71
2022/12/21 02:27:14;;;;;;;28.90;16.90;;;;;;;3.39;74.61;100102.23;126484;1299;105838;-71
2022/12/21 02:30:21;;;;;;;31.80;17.10;;;;;;;3.35;74.49;100086.02;126485;1283;107601;-72
2022/12/21 02:33:41;;;;;;;28.60;17.10;;;;;;;3.30;74.41;100075.27;126512;1294;107491;-71
2022/12/21 02:36:57;;;;;;;29.70;17.20;;;;;;;3.27;74.55;100066.91;126509;1302;107522;-72
2022/12/21 02:40:12;;;;;;;30.10;17.10;;;;;;;3.23;74.40;100063.30;126530;1298;107533;-72
2022/12/21 02:46:58;;;;;;;29.70;16.70;;;;;;;3.12;74.23;100082.55;126516;1298;107529;-71
2022/12/21 02:50:11;;;;;;;32.50;18.20;;;;;;;3.01;74.43;100095.09;126471;1298;107457;-71
2022/12/21 02:53:21;;;;;;;33.50;18.70;;;;;;;2.93;74.33;100097.40;126562;1297;107262;-72
2022/12/21 02:56:26;;;;;;;35.30;18.90;;;;;;;2.87;74.62;100094.30;126556;1296;107264;-73
2022/12/21 02:59:36;;;;;;;32.40;18.50;;;;;;;2.81;74.58;100099.48;126473;1298;107475;-72
2022/12/21 03:06:43;;;;;;;26.20;14.30;;;;;;;2.78;74.66;100090.26;126352;1296;108115;-69
2022/12/21 03:09:59;;;;;;;29.90;16.90;;;;;;;2.86;74.81;100097.39;126394;1297;107361;-72
2022/12/21 03:13:17;;;;;;;32.20;17.50;;;;;;;2.94;74.55;100094.55;126379;1289;107601;-71
2022/12/21 03:16:31;;;;;;;33.10;17.90;;;;;;;3.00;74.46;100083.06;126468;1298;108305;-71
2022/12/21 03:19:44;;;;;;;30.30;17.40;;;;;;;3.01;74.45;100056.09;126304;1298;108018;-70
2022/12/21 03:22:58;;;;;;;31.10;17.30;;;;;;;2.96;74.27;100029.79;126338;1296;107475;-71
2022/12/21 03:26:09;;;;;;;33.00;18.00;;;;;;;2.88;74.41;100025.39;126344;1298;107355;-69
2022/12/21 03:29:19;;;;;;;31.10;17.40;;;;;;;2.83;74.43;100011.91;126383;1298;106477;-71
2022/12/21 03:32:31;;;;;;;31.50;17.70;;;;;;;2.75;74.28;99996.11;126338;1281;107356;-68
2022/12/21 03:35:42;;;;;;;34.40;18.60;;;;;;;2.70;74.60;100003.67;126323;1296;108017;-68
2022/12/21 03:38:52;;;;;;;32.10;18.30;;;;;;;2.66;74.51;99984.60;126512;1292;108178;-69
2022/12/21 03:42:02;;;;;;;32.20;17.70;;;;;;;2.63;74.51;99996.42;126598;1294;107345;-68
2022/12/21 03:45:11;;;;;;;31.20;17.40;;;;;;;2.59;74.62;100016.37;126636;1296;107857;-68
2022/12/21 03:48:21;;;;;;;32.70;17.30;;;;;;;2.54;74.63;100028.86;126612;1295;107607;-71
2022/12/21 03:51:32;;;;;;;36.10;18.20;;;;;;;2.51;74.79;100036.29;126606;1296;107981;-69
2022/12/21 03:54:45;;;;;;;31.30;16.10;;;;;;;2.53;74.59;100039.63;126583;1289;108137;-72
2022/12/21 03:57:52;;;;;;;33.40;17.00;;;;;;;2.56;74.74;100031.17;126634;1296;107257;-71
2022/12/21 04:01:06;;;;;;;32.80;18.30;;;;;;;2.60;74.70;100023.49;126483;1295;108317;-70
2022/12/21 04:04:22;;;;;;;32.20;17.70;;;;;;;2.63;74.37;100003.83;127794;1296;107454;-70
2022/12/21 04:07:29;;;;;;;35.40;19.00;;;;;;;2.64;74.49;99999.91;126459;1298;108121;-73
2022/12/21 04:10:34;;;;;;;29.60;17.30;;;;;;;2.62;74.55;100006.52;126445;1296;107292;-70
2022/12/21 04:13:40;;;;;;;36.00;19.20;;;;;;;2.58;74.49;100007.13;126377;1297;108142;-70
2022/12/21 04:16:46;;;;;;;34.00;18.30;;;;;;;2.56;74.29;100006.58;126358;1291;108025;-71
2022/12/21 04:20:02;;;;;;;36.40;19.80;;;;;;;2.50;74.33;100002.05;126333;1298;108153;-73
2022/12/21 04:29:55;;;;;;;33.40;18.30;;;;;;;2.47;74.48;100015.08;126426;1298;107560;-72
2022/12/21 04:33:00;;;;;;;35.50;19.50;;;;;;;2.49;74.37;100008.34;126337;1298;108105;-70
2022/12/21 04:39:31;;;;;;;242.30;81.80;;;;;;;2.49;74.57;99989.49;126484;1299;107595;-70
2022/12/21 04:42:38;;;;;;;258.80;82.00;;;;;;;2.53;74.51;99978.87;126317;1298;108178;-70
2022/12/21 04:45:43;;;;;;;118.80;44.90;;;;;;;2.59;74.54;99974.05;126325;1297;108014;-70
2022/12/21 04:48:49;;;;;;;66.80;30.60;;;;;;;2.67;74.53;99975.98;126322;1298;108152;-72
2022/12/21 04:51:55;;;;;;;45.60;22.60;;;;;;;2.73;74.25;99977.77;126394;1298;107515;-73
2022/12/21 04:55:00;;;;;;;48.90;26.50;;;;;;;2.77;74.25;99956.61;126424;1298;106558;-72
2022/12/21 04:58:05;;;;;;;39.30;21.50;;;;;;;2.80;74.35;99942.87;126562;1298;107270;-71
2022/12/21 05:01:13;;;;;;;35.60;19.40;;;;;;;2.80;74.02;99936.73;126466;1301;108125;-72
2022/12/21 05:04:19;;;;;;;34.30;19.00;;;;;;;2.79;74.21;99931.54;126638;1289;106777;-72
2022/12/21 05:07:24;;;;;;;33.30;18.80;;;;;;;2.76;74.21;99932.13;126563;1298;107465;-74
2022/12/21 05:10:30;;;;;;;37.20;19.10;;;;;;;2.74;74.36;99950.88;126462;1298;107601;-71
2022/12/21 05:13:36;;;;;;;32.30;18.20;;;;;;;2.72;74.16;99971.71;126581;1288;107504;-70
2022/12/21 05:16:41;;;;;;;33.20;18.60;;;;;;;2.68;74.23;99988.35;126401;1291;108250;-70
2022/12/21 05:19:47;;;;;;;45.60;25.50;;;;;;;2.63;74.24;99989.94;126329;1295;108126;-72
2022/12/21 05:22:52;;;;;;;54.70;28.00;;;;;;;2.62;74.17;99985.99;126526;1299;107543;-75
2022/12/21 05:25:58;;;;;;;47.40;25.40;;;;;;;2.60;74.27;99993.65;126559;1298;107409;-73
2022/12/21 05:29:04;;;;;;;45.90;22.60;;;;;;;2.59;74.25;100003.22;126806;1298;107580;-72
2022/12/21 05:32:09;;;;;;;156.70;63.50;;;;;;;2.61;74.40;100007.11;126821;1301;107358;-72
2022/12/21 05:35:15;;;;;;;178.80;68.80;;;;;;;2.64;74.24;100004.65;126541;1294;107493;-72
2022/12/21 05:38:20;;;;;;;90.20;37.30;;;;;;;2.70;74.32;99995.06;126521;1296;107250;-72
2022/12/21 05:41:25;;;;;;;341.40;112.40;;;;;;;2.75;74.22;99988.70;126429;1298;107178;-73
2022/12/21 05:44:31;;;;;;;111.50;40.50;;;;;;;2.82;74.13;99994.04;126552;1294;107532;-72
2022/12/21 05:47:36;;;;;;;425.80;128.80;;;;;;;2.84;74.10;99986.65;126566;1294;107258;-70
2022/12/21 05:50:43;;;;;;;926.30;316.90;;;;;;;2.87;74.11;99989.48;126343;1296;106623;-70
2022/12/21 05:53:48;;;;;;;203.90;58.50;;;;;;;2.85;74.03;99996.13;126234;1299;107268;-71
2022/12/21 05:56:54;;;;;;;178.00;53.20;;;;;;;2.83;74.20;100000.09;126610;1295;106975;-73
2022/12/21 05:59:59;;;;;;;337.40;90.80;;;;;;;2.81;74.00;100005.20;126796;1298;107531;-72
2022/12/21 06:03:05;;;;;;;71.60;29.70;;;;;;;2.77;74.03;100005.27;126635;1295;107600;-71
2022/12/21 06:06:13;;;;;;;44.30;21.00;;;;;;;2.73;74.02;100004.64;126484;1298;107555;-72
2022/12/21 06:09:18;;;;;;;39.70;19.50;;;;;;;2.69;74.07;100000.04;126545;1298;107359;-72
2022/12/21 06:12:24;;;;;;;36.40;19.50;;;;;;;2.65;74.09;100006.13;126477;1291;107659;-71
2022/12/21 06:15:30;;;;;;;42.10;21.10;;;;;;;2.63;74.18;100013.33;126471;1289;107400;-71
2022/12/21 06:18:36;;;;;;;38.60;19.10;;;;;;;2.61;74.15;100004.50;126583;1288;107358;-71
2022/12/21 06:21:41;;;;;;;37.90;18.80;;;;;;;2.58;74.13;100003.66;126405;1289;107554;-70
2022/12/21 06:24:47;;;;;;;40.40;20.40;;;;;;;2.55;74.21;99999.13;126497;1282;108151;-71
2022/12/21 06:27:52;;;;;;;34.50;17.80;;;;;;;2.57;74.28;99999.13;126946;1281;108071;-72
2022/12/21 06:31:04;;;;;;;41.50;20.60;;;;;;;2.64;74.11;99996.19;126602;1289;107578;-69
2022/12/21 06:34:12;;;;;;;36.90;19.40;;;;;;;2.72;74.23;99997.88;126965;1295;107339;-73
2022/12/21 06:37:17;;;;;;;39.40;20.00;;;;;;;2.78;74.16;99995.36;126728;1295;107503;-72
2022/12/21 06:40:23;;;;;;;71.30;32.90;;;;;;;2.81;74.08;99986.92;126706;1302;106607;-72
2022/12/21 06:43:31;;;;;;;48.00;24.10;;;;;;;2.84;73.91;99975.05;126659;1296;107546;-71
2022/12/21 06:46:36;;;;;;;41.50;21.10;;;;;;;2.85;73.89;99972.19;126708;1296;107445;-74
2022/12/21 06:49:42;;;;;;;37.60;20.60;;;;;;;2.84;74.02;99971.75;126623;1294;107623;-71
2022/12/21 06:52:49;;;;;;;38.50;21.10;;;;;;;2.83;73.87;99974.66;126467;1296;108156;-70
2022/12/21 06:56:01;;;;;;;76.20;33.90;;;;;;;2.81;74.01;99971.48;126634;1302;107295;-71
2022/12/21 06:59:07;;;;;;;93.20;40.60;;;;;;;2.78;73.73;99969.90;126743;1296;107235;-71
2022/12/21 07:02:12;;;;;;;69.10;31.50;;;;;;;2.80;73.92;99976.81;126699;1294;107520;-72
2022/12/21 07:05:18;;;;;;;53.20;26.50;;;;;;;2.80;74.05;99985.21;126657;1295;107500;-72
2022/12/21 07:08:23;;;;;;;44.30;22.30;;;;;;;2.80;74.05;99972.78;126561;1293;107430;-71
2022/12/21 07:11:30;;;;;;;69.00;33.60;;;;;;;2.78;74.12;99970.80;126587;1294;107578;-71
2022/12/21 07:14:36;;;;;;;40.80;22.10;;;;;;;2.77;74.27;99986.15;126584;1291;107276;-71
2022/12/21 07:17:41;;;;;;;35.60;18.80;;;;;;;2.78;73.95;99978.19;126673;1293;107974;-75
2022/12/21 07:20:47;;;;;;;35.40;18.20;;;;;;;2.83;74.21;99983.41;126742;1295;107588;-71
2022/12/21 07:23:52;;;;;;;37.60;19.00;;;;;;;2.91;74.10;99985.33;126647;1289;110402;-71
2022/12/21 07:27:00;;;;;;;35.40;19.30;;;;;;;2.98;73.99;99982.16;126902;1287;107508;-70
2022/12/21 07:30:11;;;;;;;37.90;19.30;;;;;;;3.07;73.89;99971.69;126716;1288;107142;-70
2022/12/21 07:33:16;;;;;;;35.50;18.00;;;;;;;3.13;74.05;99967.52;126707;1288;107575;-71
2022/12/21 07:36:22;;;;;;;38.60;20.50;;;;;;;3.18;73.97;99975.51;126780;1287;108349;-71
2022/12/21 07:39:27;;;;;;;35.10;18.60;;;;;;;3.21;74.07;99972.04;126429;1286;106523;-71
2022/12/21 07:42:33;;;;;;;34.70;18.90;;;;;;;3.21;73.82;99973.46;126524;1287;108159;-71
2022/12/21 07:45:56;;;;;;;34.10;19.60;;;;;;;3.19;74.12;99971.02;126726;1288;108275;-71
2022/12/21 07:49:02;;;;;;;34.50;19.40;;;;;;;3.19;74.08;99974.00;126651;1288;107545;-71
2022/12/21 07:52:08;;;;;;;34.40;18.50;;;;;;;3.21;74.10;99976.47;126531;1288;109446;-72
2022/12/21 07:55:13;;;;;;;40.10;21.50;;;;;;;3.20;73.96;99981.98;126622;1289;108482;-71
2022/12/21 07:58:20;;;;;;;31.50;18.40;;;;;;;3.20;74.06;99977.07;126669;1289;108116;-73
2022/12/21 08:01:26;;;;;;;73.80;34.60;;;;;;;3.19;74.22;99979.08;126961;1287;107457;-71
2022/12/21 08:04:32;;;;;;;120.60;46.10;;;;;;;3.20;74.24;99975.83;126674;1299;108175;-71
2022/12/21 08:07:37;;;;;;;48.70;23.50;;;;;;;3.24;74.23;99972.91;126709;1296;107511;-71
2022/12/21 08:10:47;;;;;;;78.90;31.20;;;;;;;3.33;74.12;99977.49;126587;1299;109378;-71
2022/12/21 08:13:52;;;;;;;73.10;31.00;;;;;;;3.42;74.04;99979.64;126531;1294;107533;-71
2022/12/21 08:16:58;;;;;;;286.60;97.60;;;;;;;3.50;74.08;99984.66;126354;1294;109301;-71
2022/12/21 08:20:03;;;;;;;190.90;88.80;;;;;;;3.60;73.71;99973.08;126359;1291;110297;-71
2022/12/21 08:23:09;;;;;;;48.60;23.90;;;;;;;3.64;73.65;99962.91;126519;1283;107270;-72
2022/12/21 08:26:15;;;;;;;41.60;21.00;;;;;;;3.69;73.86;99964.48;126447;1287;107985;-71
2022/12/21 08:29:21;;;;;;;40.40;21.20;;;;;;;3.79;73.79;99959.63;126670;1288;108689;-71
2022/12/21 08:32:26;;;;;;;36.90;20.40;;;;;;;3.85;73.61;99962.70;126525;1289;109277;-71
2022/12/21 08:35:32;;;;;;;37.90;20.20;;;;;;;3.88;73.59;99968.95;126536;1283;107557;-71
2022/12/21 08:38:38;;;;;;;35.40;20.10;;;;;;;3.91;73.59;99966.63;126557;1288;108145;-70
2022/12/21 08:41:43;;;;;;;33.20;19.70;;;;;;;3.93;73.52;99967.38;126460;1295;110800;-72
2022/12/21 08:44:49;;;;;;;36.80;20.10;;;;;;;3.94;73.43;99966.04;126524;1299;107425;-72
2022/12/21 08:47:55;;;;;;;32.60;19.10;;;;;;;3.92;73.48;99957.55;126449;1297;107423;-72
2022/12/21 08:51:01;;;;;;;34.80;20.20;;;;;;;3.93;73.51;99954.01;126833;1296;107526;-71
2022/12/21 08:54:07;;;;;;;33.20;19.20;;;;;;;3.91;73.37;99950.96;126757;1298;107509;-72
2022/12/21 08:57:13;;;;;;;35.90;19.90;;;;;;;3.89;73.49;99945.46;126700;1299;108079;-71
2022/12/21 09:00:19;;;;;;;35.80;19.50;;;;;;;3.89;73.47;99943.54;126537;1299;108163;-70
2022/12/21 09:03:26;;;;;;;35.70;20.30;;;;;;;3.86;73.59;99945.91;126388;1296;107916;-69
2022/12/21 09:06:32;;;;;;;39.40;20.90;;;;;;;3.84;73.38;99939.54;126420;1299;107769;-69
2022/12/21 09:09:38;;;;;;;35.40;19.50;;;;;;;3.82;73.47;99940.03;126506;1297;107336;-70
2022/12/21 09:12:43;;;;;;;36.70;19.20;;;;;;;3.83;73.56;99938.38;126371;1294;110314;-70
2022/12/21 09:15:49;;;;;;;33.30;18.20;;;;;;;3.85;73.38;99932.96;126337;1301;107996;-69
2022/12/21 09:18:54;;;;;;;34.10;19.10;;;;;;;3.95;73.57;99930.30;126399;1289;108011;-70
2022/12/21 09:22:00;;;;;;;35.40;19.40;;;;;;;4.06;73.32;99932.20;126392;1302;108013;-70
2022/12/21 09:25:08;;;;;;;58.50;27.80;;;;;;;4.18;73.28;99928.85;126376;1299;108060;-71
2022/12/21 09:28:13;;;;;;;100.20;41.20;;;;;;;4.32;73.42;99921.73;126416;1301;107552;-70
2022/12/21 09:31:21;;;;;;;172.70;64.10;;;;;;;4.49;73.13;99921.30;126389;1299;108393;-72
2022/12/21 09:34:27;;;;;;;108.90;41.60;;;;;;;4.63;72.82;99915.05;126321;1301;108164;-69
2022/12/21 09:37:33;;;;;;;1002.60;490.50;;;;;;;4.70;72.57;99916.08;126426;1302;107872;-72
2022/12/21 09:40:39;;;;;;;299.30;104.40;;;;;;;4.71;72.64;99919.35;126375;1301;107882;-70
2022/12/21 09:43:51;;;;;;;390.70;169.50;;;;;;;4.75;72.70;99919.61;126335;1296;108160;-69
2022/12/21 09:47:02;;;;;;;119.70;51.10;;;;;;;4.80;72.60;99921.66;126393;1299;108133;-70
2022/12/21 09:50:12;;;;;;;59.20;27.90;;;;;;;4.84;72.66;99926.77;126387;1299;107407;-69
2022/12/21 09:53:25;;;;;;;43.90;24.10;;;;;;;4.83;72.45;99922.08;126403;1295;107536;-69
2022/12/21 09:56:32;;;;;;;62.20;36.10;;;;;;;4.83;72.55;99917.51;126364;1301;108016;-69
2022/12/21 09:59:37;;;;;;;42.60;23.50;;;;;;;4.79;72.38;99921.39;126363;1295;107350;-69
2022/12/21 10:02:59;;;;;;;39.40;21.50;;;;;;;4.73;72.57;99924.48;126389;1302;107995;-72
2022/12/21 10:06:27;;;;;;;42.80;24.70;;;;;;;4.71;72.52;99927.96;126353;1301;106440;-70
2022/12/21 10:09:54;;;;;;;39.20;23.10;;;;;;;4.70;72.60;99922.38;126380;1299;108136;-69
2022/12/21 10:13:06;;;;;;;39.80;22.70;;;;;;;4.69;72.40;99918.23;126403;1299;108560;-69
2022/12/21 10:16:24;;;;;;;41.60;23.30;;;;;;;4.74;72.54;99918.46;126392;1299;108043;-72
2022/12/21 10:19:36;;;;;;;38.90;22.10;;;;;;;4.77;72.55;99917.98;126336;1299;108104;-69
2022/12/21 10:22:46;;;;;;;37.60;22.30;;;;;;;4.80;72.54;99922.52;126361;1296;108100;-69
2022/12/21 10:25:56;;;;;;;43.30;23.70;;;;;;;4.79;72.39;99925.09;126401;1299;107278;-69
2022/12/21 10:29:10;;;;;;;37.70;21.90;;;;;;;4.74;72.45;99931.78;126410;1301;107353;-70
2022/12/21 10:32:16;;;;;;;39.90;21.30;;;;;;;4.70;72.55;99928.23;126314;1299;108199;-69
2022/12/21 10:35:30;;;;;;;37.90;21.00;;;;;;;4.66;72.54;99917.94;126370;1299;106954;-72
2022/12/21 10:38:37;;;;;;;104.00;50.50;;;;;;;4.65;72.49;99915.63;126375;1301;107371;-71
2022/12/21 10:41:47;;;;;;;200.50;81.80;;;;;;;4.66;72.48;99918.13;126402;1296;107240;-69
2022/12/21 10:44:53;;;;;;;85.00;37.40;;;;;;;4.74;72.68;99913.65;126383;1294;107525;-69
2022/12/21 10:47:59;;;;;;;200.40;75.40;;;;;;;4.81;72.55;99913.45;126400;1299;107379;-69
2022/12/21 10:51:15;;;;;;;321.80;144.60;;;;;;;4.84;72.46;99917.20;126312;1293;107227;-70
2022/12/21 10:54:27;;;;;;;157.40;62.40;;;;;;;4.88;72.50;99910.98;126379;1296;108026;-70
2022/12/21 10:57:34;;;;;;;179.30;83.10;;;;;;;4.94;72.35;99906.77;126361;1302;107272;-69
2022/12/21 11:00:41;;;;;;;117.20;57.90;;;;;;;5.00;72.37;99903.98;126394;1291;108102;-70
2022/12/21 11:04:05;;;;;;;110.70;58.00;;;;;;;5.03;72.35;99905.96;126756;1290;107610;-71
2022/12/21 11:07:27;;;;;;;72.70;40.00;;;;;;;5.10;72.23;99905.45;126556;1289;107992;-70
2022/12/21 11:10:33;;;;;;;46.00;25.00;;;;;;;5.16;72.47;99907.58;126410;1292;107613;-69
2022/12/21 11:13:42;;;;;;;43.40;26.20;;;;;;;5.18;72.28;99896.03;126395;1296;108151;-72
2022/12/21 11:16:48;;;;;;;37.50;20.90;;;;;;;5.20;72.33;99899.84;126398;1296;108280;-72
2022/12/21 11:20:00;;;;;;;35.40;20.00;;;;;;;5.20;72.01;99895.80;126404;1304;107507;-69
2022/12/21 11:23:09;;;;;;;32.40;19.00;;;;;;;5.22;72.07;99886.98;126208;1301;108227;-70
2022/12/21 11:26:17;;;;;;;34.80;20.50;;;;;;;5.24;72.04;99873.39;126749;1287;107275;-68
2022/12/21 11:29:27;;;;;;;35.10;20.30;;;;;;;5.27;71.91;99870.27;126374;1297;107384;-70
2022/12/21 11:32:33;;;;;;;36.30;20.50;;;;;;;5.33;72.21;99874.77;126369;1295;108317;-71
2022/12/21 11:35:39;;;;;;;35.90;20.20;;;;;;;5.37;71.73;99874.14;126398;1295;107340;-69
2022/12/21 11:38:44;;;;;;;33.00;19.60;;;;;;;5.37;72.08;99875.20;126388;1296;108162;-70
2022/12/21 11:41:54;;;;;;;34.20;21.00;;;;;;;5.38;72.05;99873.66;126374;1299;108244;-70
2022/12/21 11:45:21;;;;;;;36.90;20.90;;;;;;;5.39;71.88;99866.71;126421;1298;107516;-69
2022/12/21 11:48:36;;;;;;;39.20;21.50;;;;;;;5.40;71.83;99871.39;126418;1296;107344;-72
2022/12/21 11:51:50;;;;;;;35.20;20.20;;;;;;;5.38;71.78;99864.65;126431;1302;107867;-72
2022/12/21 11:55:03;;;;;;;36.20;20.40;;;;;;;5.35;71.62;99863.05;126349;1301;107121;-70
2022/12/21 11:58:18;;;;;;;38.10;20.80;;;;;;;5.33;71.91;99853.42;126347;1302;107403;-70
2022/12/21 12:01:39;;;;;;;53.30;29.50;;;;;;;5.34;71.98;99859.69;126343;1296;108122;-70
2022/12/21 12:05:01;;;;;;;218.80;93.70;;;;;;;5.35;71.70;99860.32;126318;1299;107990;-70
2022/12/21 12:08:13;;;;;;;110.90;45.90;;;;;;;5.33;71.71;99851.15;126351;1295;108133;-71
2022/12/21 12:11:30;;;;;;;91.20;39.70;;;;;;;5.31;71.52;99841.40;126369;1299;108187;-75
2022/12/21 12:14:56;;;;;;;545.00;232.90;;;;;;;5.33;71.61;99851.33;126376;1300;109366;-72
2022/12/21 12:18:22;;;;;;;170.40;58.80;;;;;;;5.31;71.81;99851.31;126438;1301;109162;-72
2022/12/21 12:21:40;;;;;;;110.40;44.80;;;;;;;5.28;71.66;99846.09;126391;1296;107906;-69
2022/12/21 12:25:07;;;;;;;174.70;64.50;;;;;;;5.24;71.64;99847.69;126383;1301;107286;-70
2022/12/21 12:28:54;;;;;;;89.80;37.00;;;;;;;5.19;71.67;99842.11;126425;1299;107236;-70
2022/12/21 12:32:14;;;;;;;107.90;42.50;;;;;;;5.14;71.74;99837.22;126364;1296;107995;-70
2022/12/21 12:35:54;;;;;;;66.40;29.70;;;;;;;5.10;71.98;99833.83;126334;1299;108407;-70
2022/12/21 12:39:11;;;;;;;35.90;19.90;;;;;;;5.07;71.70;99829.19;126362;1302;107538;-70
2022/12/21 12:42:22;;;;;;;40.10;21.00;;;;;;;5.09;71.80;99826.17;126402;1299;107382;-70
2022/12/21 12:45:39;;;;;;;66.30;34.90;;;;;;;5.14;71.72;99829.84;126344;1299;108000;-70
2022/12/21 12:48:57;;;;;;;37.10;21.30;;;;;;;5.20;71.76;99826.71;126374;1298;107261;-69
2022/12/21 12:52:17;;;;;;;39.40;22.60;;;;;;;5.21;71.61;99832.23;126473;1288;107436;-71
2022/12/21 12:55:29;;;;;;;37.50;21.70;;;;;;;5.22;71.49;99831.80;126431;1299;107401;-70
2022/12/21 12:58:40;;;;;;;;;;;;;;;5.19;71.55;99840.16;126498;1298;108115;-71
2022/12/21 13:01:54;;;;;;;36.30;20.50;;;;;;;5.15;71.50;99836.14;126559;1294;107254;-71
2022/12/21 13:05:24;;;;;;;36.80;21.50;;;;;;;5.10;71.67;99834.20;126511;1302;108213;-71
2022/12/21 13:08:43;;;;;;;36.00;21.00;;;;;;;5.05;71.76;99848.89;126404;1282;107539;-71
2022/12/21 13:11:57;;;;;;;37.00;21.10;;;;;;;4.98;71.69;99844.90;126685;1281;106881;-70
2022/12/21 13:15:09;;;;;;;38.60;22.00;;;;;;;4.92;71.71;99840.27;126615;1298;107894;-71
2022/12/21 13:18:17;;;;;;;36.20;21.20;;;;;;;4.87;71.66;99833.45;126460;1298;107218;-70
2022/12/21 13:21:27;;;;;;;37.70;21.30;;;;;;;4.83;71.86;99820.97;126416;1294;107082;-69
2022/12/21 13:24:41;;;;;;;36.80;21.50;;;;;;;4.78;71.66;99825.95;126410;1295;107986;-69
2022/12/21 13:27:51;;;;;;;38.40;20.60;;;;;;;4.73;71.77;99828.81;125531;1289;1271798;-70
2022/12/21 13:31:01;;;;;;;37.60;21.20;;;;;;;4.68;71.75;99822.48;126478;1289;108087;-70
2022/12/21 13:34:14;;;;;;;39.20;22.10;;;;;;;4.65;71.71;99824.68;126464;1289;107235;-70
2022/12/21 13:37:21;;;;;;;37.80;21.90;;;;;;;4.61;71.69;99823.24;126477;1295;108150;-73
2022/12/21 13:40:36;;;;;;;48.60;25.60;;;;;;;4.57;71.73;99827.81;126444;1296;108042;-70
2022/12/21 13:43:47;;;;;;;97.60;39.30;;;;;;;4.54;71.98;99833.17;126462;1295;107981;-70
2022/12/21 13:46:55;;;;;;;53.00;24.30;;;;;;;4.49;72.16;99831.44;126402;1296;108001;-70
2022/12/21 13:50:17;;;;;;;358.30;105.40;;;;;;;4.46;72.43;99831.66;126432;1296;108656;-70
2022/12/21 13:53:34;;;;;;;417.40;135.60;;;;;;;4.45;72.70;99832.61;126513;1282;108001;-70
2022/12/21 13:56:54;;;;;;;125.70;45.80;;;;;;;4.49;72.82;99830.55;126479;1296;108003;-69
2022/12/21 14:00:14;;;;;;;208.10;74.30;;;;;;;4.51;73.05;99834.27;126452;1290;107986;-70
2022/12/21 14:03:31;;;;;;;382.60;171.40;;;;;;;4.52;72.96;99835.94;126633;1296;107317;-73
2022/12/21 14:07:11;;;;;;;98.80;50.00;;;;;;;4.52;72.90;99835.77;126579;1295;108129;-69
2022/12/21 14:10:23;;;;;;;51.60;27.50;;;;;;;4.49;73.14;99833.95;126445;1295;107917;-69
2022/12/21 14:14:00;;;;;;;47.60;24.40;;;;;;;4.45;73.12;99836.92;126427;1302;107731;-69
2022/12/21 14:17:19;;;;;;;53.10;31.90;;;;;;;4.41;73.32;99833.33;126291;1301;108015;-69
2022/12/21 14:20:29;;;;;;;46.50;25.20;;;;;;;4.38;73.27;99833.63;126553;1287;107902;-70
2022/12/21 14:23:44;;;;;;;44.40;24.20;;;;;;;4.35;73.51;99833.27;126420;1295;108222;-68
2022/12/21 14:27:00;;;;;;;40.70;23.10;;;;;;;4.32;73.55;99832.13;126309;1296;108221;-68
2022/12/21 14:30:17;;;;;;;42.40;22.10;;;;;;;4.28;73.62;99833.14;126503;1296;107730;-71
2022/12/21 14:33:27;;;;;;;42.00;21.80;;;;;;;4.28;73.70;99830.47;126469;1294;108599;-71
2022/12/21 14:36:33;;;;;;;40.60;21.80;;;;;;;4.30;73.92;99835.03;126524;1302;107880;-70